Time;durP1;ratioP1;P1;durP2;ratioP2;P2;SDS_P1;SDS_P2;PMS_P1;PMS_P2;Temp;Humidity;BMP_temperature;BMP_pressure;BME280_temperature;BME280_humidity;BME280_pressure;Samples;Min_cycle;Max_cycle;Signal;HPM_P1;HPM_P2
2021/10/31 00:00:54;;;;;;;2.57;1.97;;;14.50;99.90;;;;;;5070360;28;20581;-76
2021/10/31 00:03:20;;;;;;;1.73;1.43;;;14.50;99.90;;;;;;5071163;28;20164;-76
2021/10/31 00:05:45;;;;;;;1.90;1.60;;;14.40;99.90;;;;;;5071144;28;20257;-76
2021/10/31 00:08:11;;;;;;;2.10;1.70;;;14.40;99.90;;;;;;5076194;28;20196;-75
2021/10/31 00:10:37;;;;;;;1.70;1.23;;;14.40;99.90;;;;;;5036942;28;21169;-77
2021/10/31 00:13:04;;;;;;;2.80;1.80;;;14.40;99.90;;;;;;5071325;28;20161;-76
2021/10/31 00:15:30;;;;;;;2.17;1.53;;;14.30;99.90;;;;;;5071257;28;20594;-76
2021/10/31 00:17:55;;;;;;;3.53;1.83;;;14.30;99.90;;;;;;5053262;28;21250;-76
2021/10/31 00:20:21;;;;;;;2.50;1.70;;;14.30;99.90;;;;;;5053532;28;20662;-77
2021/10/31 00:22:48;;;;;;;2.70;1.67;;;14.30;99.90;;;;;;5071095;28;20183;-76
2021/10/31 00:25:14;;;;;;;2.53;1.90;;;14.30;99.90;;;;;;5053105;28;20610;-76
2021/10/31 00:27:41;;;;;;;2.83;1.73;;;14.30;99.90;;;;;;5071126;28;20589;-76
2021/10/31 00:30:08;;;;;;;2.07;1.73;;;14.30;99.90;;;;;;5071193;28;20571;-76
2021/10/31 00:32:34;;;;;;;1.95;1.73;;;14.20;99.90;;;;;;5070978;28;20562;-76
2021/10/31 00:35:00;;;;;;;3.17;1.80;;;14.20;99.90;;;;;;5071100;28;20279;-76
2021/10/31 00:37:25;;;;;;;2.20;2.00;;;14.20;99.90;;;;;;5071266;28;20734;-76
2021/10/31 00:39:51;;;;;;;2.13;1.60;;;14.20;99.90;;;;;;5071044;28;20582;-76
2021/10/31 00:42:17;;;;;;;2.27;1.73;;;14.10;99.90;;;;;;5053428;28;20164;-76
2021/10/31 00:44:43;;;;;;;2.23;1.77;;;14.10;99.90;;;;;;5040925;28;20192;-76
2021/10/31 00:47:09;;;;;;;3.40;1.77;;;14.10;99.90;;;;;;5071595;28;20585;-77
2021/10/31 00:49:35;;;;;;;1.80;1.40;;;14.10;99.90;;;;;;5052952;28;20798;-77
2021/10/31 00:52:01;;;;;;;1.73;1.53;;;14.10;99.90;;;;;;5071155;28;20566;-76
2021/10/31 00:54:28;;;;;;;1.90;1.47;;;14.00;99.90;;;;;;5070574;28;21162;-77
2021/10/31 00:56:54;;;;;;;2.93;1.57;;;14.00;99.90;;;;;;5071047;28;20626;-78
2021/10/31 00:59:20;;;;;;;2.40;2.20;;;14.00;99.90;;;;;;5053246;28;20934;-78
2021/10/31 01:01:49;;;;;;;4.90;2.03;;;14.00;99.90;;;;;;5071366;28;20658;-78
2021/10/31 01:04:19;;;;;;;2.27;1.60;;;14.00;99.90;;;;;;5071714;28;20620;-78
2021/10/31 01:06:58;;;;;;;2.40;1.33;;;13.90;99.90;;;;;;5054248;28;20574;-78
2021/10/31 01:09:48;;;;;;;2.70;1.87;;;13.90;99.90;;;;;;5070922;28;20577;-77
2021/10/31 01:12:47;;;;;;;1.87;1.40;;;13.90;99.90;;;;;;5071204;28;20968;-78
2021/10/31 01:15:36;;;;;;;1.90;1.10;;;13.80;99.90;;;;;;5052315;28;20945;-78
2021/10/31 01:18:13;;;;;;;3.60;1.40;;;13.80;99.90;;;;;;5074413;28;20621;-78
2021/10/31 01:20:42;;;;;;;2.50;1.77;;;13.80;99.90;;;;;;5074742;28;20586;-77
2021/10/31 01:23:34;;;;;;;2.93;1.60;;;13.70;99.90;;;;;;5062242;28;20603;-77
2021/10/31 01:26:13;;;;;;;2.10;1.80;;;13.70;99.90;;;;;;5074145;28;20604;-77
2021/10/31 01:29:12;;;;;;;3.43;1.80;;;13.70;99.90;;;;;;5075216;28;20599;-77
2021/10/31 01:32:19;;;;;;;2.77;1.80;;;13.60;99.90;;;;;;5075128;28;20562;-78
2021/10/31 01:35:08;;;;;;;4.07;1.93;;;13.60;99.90;;;;;;5057168;28;20613;-77
2021/10/31 01:37:49;;;;;;;2.10;1.87;;;13.60;99.90;;;;;;5075017;28;20721;-77
2021/10/31 01:40:26;;;;;;;3.30;2.05;;;13.60;99.90;;;;;;5089602;28;20593;-77
2021/10/31 01:43:20;;;;;;;2.40;1.97;;;13.60;99.90;;;;;;5091621;28;20176;-77
2021/10/31 01:45:48;;;;;;;2.70;1.67;;;13.60;99.90;;;;;;5074426;28;20581;-77
2021/10/31 01:48:35;;;;;;;2.90;2.33;;;13.60;99.90;;;;;;5092670;28;20589;-77
2021/10/31 01:51:13;;;;;;;3.30;2.00;;;13.50;99.90;;;;;;5090930;28;20650;-77
2021/10/31 01:53:53;;;;;;;2.73;2.20;;;13.50;99.90;;;;;;5071117;28;20200;-78
2021/10/31 01:56:21;;;;;;;2.10;1.77;;;13.50;99.90;;;;;;5078239;28;20610;-78
2021/10/31 01:58:56;;;;;;;1.87;1.70;;;13.50;99.90;;;;;;5078812;28;20928;-78
2021/10/31 02:01:24;;;;;;;3.17;2.23;;;13.50;99.90;;;;;;5058422;28;21136;-78
2021/10/31 02:03:52;;;;;;;3.38;1.80;;;13.50;99.90;;;;;;5073997;28;20698;-77
2021/10/31 02:06:18;;;;;;;2.70;2.20;;;13.50;99.90;;;;;;5073718;28;20175;-78
2021/10/31 02:08:46;;;;;;;3.80;1.92;;;13.40;99.90;;;;;;5074122;28;20251;-78
2021/10/31 02:11:13;;;;;;;2.40;2.15;;;13.40;99.90;;;;;;5073779;28;20172;-78
2021/10/31 02:13:40;;;;;;;3.17;1.97;;;13.40;99.90;;;;;;5055475;28;20223;-76
2021/10/31 02:16:07;;;;;;;3.25;2.65;;;13.40;99.90;;;;;;5073130;28;21147;-77
2021/10/31 02:18:33;;;;;;;2.20;1.80;;;13.40;99.90;;;;;;5073125;28;20690;-77
2021/10/31 02:21:00;;;;;;;2.70;1.77;;;13.30;99.90;;;;;;5073459;28;20574;-77
2021/10/31 02:23:28;;;;;;;3.60;2.13;;;13.30;99.90;;;;;;5072705;28;20196;-77
2021/10/31 02:25:54;;;;;;;5.63;1.90;;;13.30;99.90;;;;;;5055289;28;20195;-77
2021/10/31 02:28:20;;;;;;;2.42;2.22;;;13.30;99.90;;;;;;5055158;28;20605;-77
2021/10/31 02:30:48;;;;;;;2.93;2.33;;;13.20;99.90;;;;;;5073172;28;20255;-77
2021/10/31 02:33:13;;;;;;;2.38;1.73;;;13.20;99.90;;;;;;5072808;28;20223;-77
2021/10/31 02:35:40;;;;;;;2.20;2.00;;;13.20;99.90;;;;;;5075100;28;20165;-77
2021/10/31 02:38:07;;;;;;;2.97;2.20;;;13.20;99.90;;;;;;5076022;28;20250;-77
2021/10/31 02:40:35;;;;;;;5.30;2.30;;;13.10;99.90;;;;;;5055456;28;20532;-78
2021/10/31 02:43:03;;;;;;;3.10;2.72;;;13.10;99.90;;;;;;5055010;28;20365;-78
2021/10/31 02:45:28;;;;;;;3.47;3.17;;;13.10;99.90;;;;;;5072944;28;20191;-78
2021/10/31 02:48:17;;;;;;;2.97;2.67;;;13.10;99.90;;;;;;5072805;28;20172;-78
2021/10/31 02:50:45;;;;;;;3.83;3.13;;;13.00;99.90;;;;;;5080150;28;20175;-77
2021/10/31 02:53:23;;;;;;;6.07;2.75;;;13.10;99.90;;;;;;5066649;28;20177;-78
2021/10/31 02:56:10;;;;;;;3.78;3.05;;;13.00;99.90;;;;;;5086871;28;20172;-78
2021/10/31 02:58:53;;;;;;;3.30;2.80;;;13.00;99.90;;;;;;5068481;28;20477;-78
2021/10/31 03:01:20;;;;;;;3.03;2.75;;;13.00;99.90;;;;;;5086317;28;20169;-78
2021/10/31 03:03:46;;;;;;;3.22;2.92;;;13.00;99.90;;;;;;5083350;28;20266;-78
2021/10/31 03:06:13;;;;;;;2.53;2.33;;;13.00;99.90;;;;;;5067682;28;20620;-78
2021/10/31 03:08:39;;;;;;;2.90;2.60;;;12.90;99.90;;;;;;5069353;28;20164;-77
2021/10/31 03:11:09;;;;;;;4.22;3.10;;;12.90;99.90;;;;;;5072679;28;20559;-78
2021/10/31 03:13:36;;;;;;;3.13;2.83;;;12.90;99.90;;;;;;5077461;28;20180;-77
2021/10/31 03:16:02;;;;;;;3.80;2.50;;;12.90;99.90;;;;;;5072076;28;20172;-78
2021/10/31 03:18:28;;;;;;;3.13;2.92;;;12.90;99.90;;;;;;5072271;28;20252;-78
2021/10/31 03:20:53;;;;;;;4.00;3.60;;;12.90;99.90;;;;;;5072188;28;20228;-78
2021/10/31 03:23:20;;;;;;;5.20;2.97;;;12.80;99.90;;;;;;5072065;28;20198;-77
2021/10/31 03:25:45;;;;;;;4.10;3.80;;;12.80;99.90;;;;;;5071792;28;20585;-78
2021/10/31 03:28:12;;;;;;;3.87;3.50;;;12.80;99.90;;;;;;5072067;28;20204;-78
2021/10/31 03:30:37;;;;;;;3.90;3.50;;;12.80;99.90;;;;;;5054077;28;20543;-79
2021/10/31 03:33:04;;;;;;;4.60;4.00;;;12.80;99.90;;;;;;5054094;28;20184;-78
2021/10/31 03:35:30;;;;;;;4.65;2.85;;;12.70;99.90;;;;;;5071493;28;20185;-77
2021/10/31 03:37:56;;;;;;;4.00;3.60;;;12.70;99.90;;;;;;5071797;28;20235;-78
2021/10/31 03:40:22;;;;;;;3.13;2.83;;;12.70;99.90;;;;;;5071187;28;20571;-78
2021/10/31 03:42:47;;;;;;;3.80;3.20;;;12.70;99.90;;;;;;5071702;28;20555;-78
2021/10/31 03:45:13;;;;;;;4.50;4.10;;;12.70;99.90;;;;;;5053209;28;20185;-78
2021/10/31 03:47:46;;;;;;;3.53;3.23;;;12.70;99.90;;;;;;5071865;28;20172;-78
2021/10/31 03:50:12;;;;;;;4.03;3.57;;;12.70;99.90;;;;;;5074995;28;20567;-78
2021/10/31 03:52:38;;;;;;;3.90;3.50;;;12.70;99.90;;;;;;5072796;28;20616;-78
2021/10/31 03:55:04;;;;;;;3.37;3.00;;;12.70;99.90;;;;;;5071126;28;20957;-79
2021/10/31 03:57:29;;;;;;;4.85;3.60;;;12.70;99.90;;;;;;5071505;28;20622;-78
2021/10/31 03:59:55;;;;;;;4.73;4.30;;;12.70;99.90;;;;;;5071362;28;20317;-78
2021/10/31 04:02:21;;;;;;;4.17;3.80;;;12.70;99.90;;;;;;5071701;28;20203;-78
2021/10/31 04:04:47;;;;;;;5.30;3.60;;;12.70;99.90;;;;;;5053471;28;20195;-79
2021/10/31 04:07:13;;;;;;;4.43;3.93;;;12.70;99.90;;;;;;5071048;28;20566;-80
2021/10/31 04:09:38;;;;;;;4.00;3.60;;;12.70;99.90;;;;;;5053569;28;20259;-77
2021/10/31 04:12:05;;;;;;;5.10;4.13;;;12.70;99.90;;;;;;5071358;28;20655;-77
2021/10/31 04:14:30;;;;;;;5.65;3.55;;;12.70;99.90;;;;;;5036896;28;20220;-77
2021/10/31 04:16:56;;;;;;;3.97;3.57;;;12.70;99.90;;;;;;5071012;28;20285;-77
2021/10/31 04:19:22;;;;;;;5.47;4.00;;;12.70;99.90;;;;;;5071478;28;20160;-78
2021/10/31 04:21:47;;;;;;;3.83;3.37;;;12.60;99.90;;;;;;5036568;28;20630;-77
2021/10/31 04:24:13;;;;;;;4.30;3.90;;;12.70;99.90;;;;;;5071269;28;20249;-78
2021/10/31 04:26:39;;;;;;;4.67;4.20;;;12.70;99.90;;;;;;5071057;28;20182;-78
2021/10/31 04:29:05;;;;;;;4.60;4.20;;;12.70;99.90;;;;;;5076718;28;20204;-77
2021/10/31 04:31:30;;;;;;;4.10;3.80;;;12.70;99.90;;;;;;5071061;28;20172;-77
2021/10/31 04:33:56;;;;;;;3.50;3.20;;;12.70;99.90;;;;;;5053280;28;20271;-77
2021/10/31 04:36:22;;;;;;;4.33;3.83;;;12.80;99.90;;;;;;5070682;28;20595;-77
2021/10/31 04:38:53;;;;;;;4.47;4.07;;;12.80;99.90;;;;;;5071288;28;20164;-77
2021/10/31 04:41:19;;;;;;;4.70;4.20;;;12.80;99.90;;;;;;5071121;28;20531;-78
2021/10/31 04:43:45;;;;;;;3.93;3.53;;;12.80;99.90;;;;;;5071174;28;20606;-78
2021/10/31 04:46:11;;;;;;;3.40;3.10;;;12.80;99.90;;;;;;5070553;28;20244;-78
2021/10/31 04:48:37;;;;;;;4.57;4.00;;;12.80;99.90;;;;;;5071030;28;20181;-78
2021/10/31 04:51:03;;;;;;;3.00;2.80;;;12.80;99.90;;;;;;5071541;28;20658;-77
2021/10/31 04:53:28;;;;;;;4.40;2.73;;;12.80;99.90;;;;;;5074434;28;20271;-77
2021/10/31 04:55:54;;;;;;;2.90;2.70;;;12.80;99.90;;;;;;5074700;28;21284;-77
2021/10/31 04:58:20;;;;;;;5.77;3.10;;;12.80;99.90;;;;;;5074564;28;20226;-77
2021/10/31 05:00:45;;;;;;;3.67;2.90;;;12.80;99.90;;;;;;5074958;28;20688;-79
2021/10/31 05:03:11;;;;;;;4.87;4.13;;;12.80;99.90;;;;;;5039973;28;20614;-79
2021/10/31 05:05:37;;;;;;;3.53;3.20;;;12.80;99.90;;;;;;5079642;28;20175;-78
2021/10/31 05:08:04;;;;;;;4.87;2.90;;;12.70;99.90;;;;;;5056735;28;20234;-78
2021/10/31 05:10:30;;;;;;;4.00;3.40;;;12.70;99.90;;;;;;5056749;28;20172;-78
2021/10/31 05:12:56;;;;;;;4.57;3.77;;;12.70;99.90;;;;;;5056675;28;20577;-78
2021/10/31 05:15:22;;;;;;;5.13;3.30;;;12.70;99.90;;;;;;5056292;28;20677;-78
2021/10/31 05:17:49;;;;;;;3.80;3.43;;;12.70;99.90;;;;;;5056227;28;20633;-79
2021/10/31 05:20:16;;;;;;;4.50;3.92;;;12.70;99.90;;;;;;5074438;28;20169;-78
2021/10/31 05:22:41;;;;;;;3.75;3.25;;;12.70;99.90;;;;;;5074018;28;20165;-78
2021/10/31 05:25:09;;;;;;;3.73;3.37;;;12.70;99.90;;;;;;5055969;28;20184;-78
2021/10/31 05:27:35;;;;;;;5.53;3.20;;;12.60;99.90;;;;;;5056195;28;20218;-78
2021/10/31 05:30:02;;;;;;;4.05;3.65;;;12.70;99.90;;;;;;5074316;28;20563;-78
2021/10/31 05:32:33;;;;;;;3.30;2.88;;;12.60;99.90;;;;;;5073992;28;20245;-78
2021/10/31 05:34:59;;;;;;;6.38;3.60;;;12.60;99.90;;;;;;5055977;28;20188;-78
2021/10/31 05:37:34;;;;;;;2.80;2.17;;;12.60;99.90;;;;;;5074164;28;20234;-78
2021/10/31 05:40:01;;;;;;;2.42;2.22;;;12.60;99.90;;;;;;5074018;28;20197;-78
2021/10/31 05:42:27;;;;;;;3.33;3.05;;;12.60;99.90;;;;;;5079795;28;20554;-78
2021/10/31 05:44:53;;;;;;;4.53;3.17;;;12.60;99.90;;;;;;5074049;28;20180;-78
2021/10/31 05:47:18;;;;;;;3.73;3.40;;;12.50;99.90;;;;;;5073755;28;20174;-78
2021/10/31 05:49:44;;;;;;;4.03;3.20;;;12.50;99.90;;;;;;5073798;28;20613;-78
2021/10/31 05:52:10;;;;;;;2.63;2.30;;;12.50;99.90;;;;;;5074771;28;20187;-78
2021/10/31 05:54:36;;;;;;;3.50;3.20;;;12.50;99.90;;;;;;5055491;28;20204;-78
2021/10/31 05:57:02;;;;;;;3.40;2.70;;;12.50;99.90;;;;;;5073666;28;20204;-78
2021/10/31 05:59:27;;;;;;;3.37;3.07;;;12.50;99.90;;;;;;5055667;28;20171;-78
2021/10/31 06:01:53;;;;;;;3.53;3.20;;;12.50;99.90;;;;;;5055591;28;20625;-78
2021/10/31 06:04:19;;;;;;;3.60;2.93;;;12.50;99.90;;;;;;5073526;28;20706;-78
2021/10/31 06:06:46;;;;;;;3.63;3.33;;;12.50;99.90;;;;;;5038802;28;20729;-78
2021/10/31 06:09:12;;;;;;;4.20;3.80;;;12.50;99.90;;;;;;5055573;28;20213;-78
2021/10/31 06:11:38;;;;;;;3.90;3.47;;;12.50;99.90;;;;;;5055853;28;20536;-78
2021/10/31 06:14:04;;;;;;;3.17;2.87;;;12.50;99.90;;;;;;5073248;28;20192;-78
2021/10/31 06:16:30;;;;;;;3.80;3.40;;;12.40;99.90;;;;;;5073209;28;20287;-78
2021/10/31 06:18:56;;;;;;;4.03;3.20;;;12.40;99.90;;;;;;5078175;28;20176;-78
2021/10/31 06:21:21;;;;;;;4.03;2.87;;;12.40;99.90;;;;;;5074179;28;20567;-78
2021/10/31 06:23:47;;;;;;;6.17;4.10;;;12.40;99.90;;;;;;5055269;28;20199;-78
2021/10/31 06:26:13;;;;;;;2.57;2.37;;;12.40;99.90;;;;;;5072878;28;20183;-78
2021/10/31 06:28:38;;;;;;;3.00;2.80;;;12.40;99.90;;;;;;5073283;28;20153;-78
2021/10/31 06:31:04;;;;;;;3.30;3.10;;;12.40;99.90;;;;;;5038669;28;20633;-79
2021/10/31 06:33:30;;;;;;;4.70;2.57;;;12.40;99.90;;;;;;5039331;28;20192;-78
2021/10/31 06:35:56;;;;;;;3.33;3.03;;;12.40;99.90;;;;;;5038262;28;20206;-78
2021/10/31 06:38:22;;;;;;;3.37;2.97;;;12.40;99.90;;;;;;5073389;28;20258;-79
2021/10/31 06:40:48;;;;;;;3.75;2.63;;;12.30;99.90;;;;;;5055069;28;20164;-79
2021/10/31 06:43:13;;;;;;;2.80;2.47;;;12.30;99.90;;;;;;5072704;28;20171;-79
2021/10/31 06:45:39;;;;;;;2.50;2.00;;;12.30;99.90;;;;;;5054533;28;20527;-78
2021/10/31 06:48:06;;;;;;;3.40;3.03;;;12.30;99.90;;;;;;5054967;28;20221;-78
2021/10/31 06:50:32;;;;;;;2.70;2.50;;;12.30;99.90;;;;;;5072546;28;20967;-78
2021/10/31 06:52:58;;;;;;;4.80;2.40;;;12.40;99.90;;;;;;5054978;28;20176;-78
2021/10/31 06:55:24;;;;;;;3.23;2.57;;;12.30;99.90;;;;;;5072428;28;20269;-78
2021/10/31 06:57:50;;;;;;;4.10;2.60;;;12.40;99.90;;;;;;5083073;22;20785;-81
2021/10/31 07:00:17;;;;;;;2.70;2.37;;;12.40;99.90;;;;;;5071053;28;20563;-81
2021/10/31 07:02:42;;;;;;;2.83;2.30;;;12.50;99.90;;;;;;5071332;28;20265;-83
2021/10/31 07:05:09;;;;;;;2.27;2.00;;;12.50;99.90;;;;;;5072280;28;20164;-80
2021/10/31 07:07:34;;;;;;;3.55;2.05;;;12.60;99.90;;;;;;5070775;28;20208;-81
2021/10/31 07:10:00;;;;;;;2.00;1.80;;;12.70;99.90;;;;;;5072611;28;20574;-83
2021/10/31 07:12:25;;;;;;;1.90;1.70;;;12.70;99.90;;;;;;5071591;28;20192;-83
2021/10/31 07:14:51;;;;;;;2.60;2.40;;;12.80;99.90;;;;;;5075127;28;20278;-82
2021/10/31 07:17:17;;;;;;;3.07;2.80;;;12.80;99.90;;;;;;5071678;28;20222;-82
2021/10/31 07:19:43;;;;;;;3.00;2.70;;;12.90;99.90;;;;;;5072279;28;20163;-83
2021/10/31 07:22:09;;;;;;;2.63;2.03;;;12.90;99.90;;;;;;5072158;28;20179;-82
2021/10/31 07:24:34;;;;;;;2.80;2.60;;;13.00;99.90;;;;;;5071356;28;20215;-83
2021/10/31 07:27:00;;;;;;;3.20;2.07;;;13.00;99.90;;;;;;5072606;28;20613;-82
2021/10/31 07:29:26;;;;;;;2.60;1.93;;;13.10;99.90;;;;;;5072822;28;20172;-82
2021/10/31 07:31:52;;;;;;;2.60;2.40;;;13.10;99.90;;;;;;5072733;28;20555;-83
2021/10/31 07:34:18;;;;;;;2.07;1.87;;;13.20;99.90;;;;;;5072786;28;20571;-83
2021/10/31 07:36:44;;;;;;;2.50;2.13;;;13.30;99.90;;;;;;5072049;28;20204;-83
2021/10/31 07:39:10;;;;;;;5.23;2.10;;;13.30;99.90;;;;;;5070980;28;20574;-81
2021/10/31 07:41:37;;;;;;;2.83;2.63;;;13.40;99.90;;;;;;5072750;28;20559;-82
2021/10/31 07:44:07;;;;;;;2.30;2.10;;;13.40;99.90;;;;;;5054253;28;20641;-82
2021/10/31 07:46:34;;;;;;;3.10;2.07;;;13.50;99.90;;;;;;5071019;28;20623;-81
2021/10/31 07:49:01;;;;;;;3.03;2.30;;;13.50;99.90;;;;;;5071806;28;20241;-82
2021/10/31 07:51:27;;;;;;;2.70;2.50;;;13.60;99.90;;;;;;5078060;28;20625;-81
2021/10/31 07:53:52;;;;;;;2.23;1.90;;;13.60;99.90;;;;;;5071687;28;21021;-82
2021/10/31 07:56:21;;;;;;;4.37;2.40;;;13.70;99.90;;;;;;5062981;28;20200;-80
2021/10/31 07:58:54;;;;;;;3.57;2.33;;;13.70;99.90;;;;;;5051526;28;20181;-81
2021/10/31 08:01:21;;;;;;;2.33;1.70;;;13.70;99.90;;;;;;5052823;28;20591;-82
2021/10/31 08:03:47;;;;;;;2.80;2.30;;;13.80;99.90;;;;;;5051303;28;20595;-81
2021/10/31 08:06:13;;;;;;;3.30;2.00;;;13.80;99.90;;;;;;5052122;28;20602;-80
2021/10/31 08:08:39;;;;;;;1.90;1.60;;;13.90;99.90;;;;;;5050948;28;20575;-81
2021/10/31 08:11:05;;;;;;;2.67;2.10;;;13.90;99.90;;;;;;5051550;28;20663;-81
2021/10/31 08:13:31;;;;;;;3.50;2.00;;;14.00;99.90;;;;;;5051260;28;20165;-82
2021/10/31 08:15:57;;;;;;;1.87;1.60;;;14.10;99.90;;;;;;5051263;28;20203;-81
2021/10/31 08:18:23;;;;;;;4.90;1.80;;;14.20;99.90;;;;;;5051323;28;20611;-80
2021/10/31 08:20:49;;;;;;;3.47;1.90;;;14.20;99.90;;;;;;5049919;28;20564;-79
2021/10/31 08:23:15;;;;;;;3.80;2.43;;;14.20;99.90;;;;;;5051124;28;20559;-80
2021/10/31 08:25:43;;;;;;;8.10;1.83;;;14.20;99.90;;;;;;5052774;28;20272;-80
2021/10/31 08:28:10;;;;;;;2.93;1.83;;;14.30;99.90;;;;;;5057481;28;20591;-80
2021/10/31 08:30:37;;;;;;;2.47;1.67;;;14.30;99.90;;;;;;5054014;28;21038;-81
2021/10/31 08:33:17;;;;;;;2.33;1.70;;;14.40;99.90;;;;;;5053898;28;20931;-80
2021/10/31 08:35:43;;;;;;;1.67;1.50;;;14.40;99.90;;;;;;5053852;28;20556;-80
2021/10/31 08:38:10;;;;;;;2.50;2.30;;;14.50;99.90;;;;;;5037212;28;20733;-80
2021/10/31 08:40:41;;;;;;;2.30;2.10;;;14.50;99.90;;;;;;5054975;28;20724;-80
2021/10/31 08:43:08;;;;;;;2.00;1.80;;;14.60;99.90;;;;;;5053739;28;20570;-80
2021/10/31 08:45:35;;;;;;;2.30;1.90;;;14.80;99.90;;;;;;5054499;28;20559;-80
2021/10/31 08:48:01;;;;;;;2.67;1.80;;;15.00;99.90;;;;;;5054953;28;20603;-80
2021/10/31 08:50:28;;;;;;;2.07;1.87;;;15.20;99.90;;;;;;5054822;28;20629;-80
2021/10/31 08:52:54;;;;;;;3.03;1.80;;;15.70;99.90;;;;;;5054782;28;20176;-80
2021/10/31 08:55:20;;;;;;;1.73;1.50;;;16.20;99.90;;;;;;5054459;28;20580;-80
2021/10/31 08:57:46;;;;;;;2.00;1.53;;;16.90;99.90;;;;;;5053400;28;20548;-79
2021/10/31 09:00:12;;;;;;;1.50;1.30;;;17.20;99.90;;;;;;5054616;28;20589;-79
2021/10/31 09:02:39;;;;;;;1.40;1.23;;;17.40;99.90;;;;;;5053648;28;20204;-80
2021/10/31 09:05:06;;;;;;;3.40;1.40;;;17.60;99.90;;;;;;5059186;28;20555;-80
2021/10/31 09:07:32;;;;;;;1.73;1.30;;;17.60;99.90;;;;;;5055272;28;20599;-79
2021/10/31 09:09:59;;;;;;;3.20;1.70;;;17.50;99.90;;;;;;5054622;28;20564;-80
2021/10/31 09:12:25;;;;;;;1.70;1.50;;;17.50;99.90;;;;;;5054785;28;20571;-79
2021/10/31 09:14:51;;;;;;;1.70;1.20;;;17.40;99.90;;;;;;5054210;28;20665;-80
2021/10/31 09:17:17;;;;;;;1.87;1.20;;;17.40;99.90;;;;;;5054173;28;20626;-79
2021/10/31 09:19:42;;;;;;;2.03;1.60;;;17.30;99.90;;;;;;5054602;28;20567;-79
2021/10/31 09:22:09;;;;;;;1.70;1.13;;;17.20;99.90;;;;;;5053032;28;20169;-80
2021/10/31 09:24:35;;;;;;;1.53;1.43;;;17.10;99.90;;;;;;5054325;28;20227;-79
2021/10/31 09:27:01;;;;;;;1.70;1.30;;;17.10;99.90;;;;;;5052481;28;20991;-79
2021/10/31 09:29:29;;;;;;;2.50;1.53;;;17.00;99.90;;;;;;5054293;28;20570;-79
2021/10/31 09:31:55;;;;;;;2.03;1.43;;;17.00;99.90;;;;;;5052719;28;20654;-79
2021/10/31 09:34:21;;;;;;;1.80;1.30;;;16.90;99.90;;;;;;5053095;28;20602;-79
2021/10/31 09:36:46;;;;;;;4.37;1.57;;;16.90;99.90;;;;;;5053667;28;20627;-79
2021/10/31 09:39:12;;;;;;;1.90;1.80;;;16.90;99.90;;;;;;5053778;28;20573;-79
2021/10/31 09:41:38;;;;;;;2.17;1.77;;;17.10;99.90;;;;;;5055112;28;20215;-79
2021/10/31 09:46:41;;;;;;;2.53;1.80;;;17.30;99.90;;;;;;5053491;28;20250;-79
2021/10/31 09:49:10;;;;;;;5.63;1.93;;;17.50;99.90;;;;;;5052575;28;20580;-79
2021/10/31 09:51:37;;;;;;;2.67;2.47;;;17.60;99.90;;;;;;5053727;28;20587;-79
2021/10/31 09:54:03;;;;;;;1.60;1.40;;;17.80;99.90;;;;;;5053622;28;20575;-79
2021/10/31 09:56:28;;;;;;;1.67;1.50;;;18.10;99.90;;;;;;5051772;28;20638;-79
2021/10/31 09:58:58;;;;;;;1.60;1.50;;;18.30;99.90;;;;;;5053568;28;20562;-79
2021/10/31 10:01:51;;;;;;;2.63;1.97;;;18.60;99.90;;;;;;5053665;28;20650;-79
2021/10/31 10:04:28;;;;;;;2.47;1.43;;;18.90;99.90;;;;;;5052478;28;20567;-78
2021/10/31 10:06:55;;;;;;;3.93;1.37;;;19.40;99.90;;;;;;5051534;28;20622;-79
2021/10/31 10:09:21;;;;;;;3.00;1.93;;;19.80;99.90;;;;;;5053643;28;20571;-79
2021/10/31 10:11:48;;;;;;;2.37;1.40;;;20.00;99.90;;;;;;5051929;28;21171;-79
2021/10/31 10:14:26;;;;;;;3.47;2.00;;;20.10;99.90;;;;;;5051936;28;20571;-79
2021/10/31 10:17:07;;;;;;;2.60;1.70;;;20.10;99.90;;;;;;5052683;28;20626;-79
2021/10/31 10:19:36;;;;;;;1.60;1.20;;;19.80;99.90;;;;;;5040273;28;20682;-79
2021/10/31 10:22:11;;;;;;;3.60;2.37;;;19.60;99.90;;;;;;5051939;28;20567;-79
2021/10/31 10:24:51;;;;;;;2.90;1.50;;;19.30;99.90;;;;;;5051570;28;21146;-79
2021/10/31 10:27:18;;;;;;;2.43;1.50;;;19.20;99.90;;;;;;5052652;28;20702;-79
2021/10/31 10:29:45;;;;;;;4.83;2.30;;;19.10;99.90;;;;;;5053233;28;20579;-79
2021/10/31 10:32:17;;;;;;;1.87;1.40;;;19.00;99.90;;;;;;5053013;28;20925;-79
2021/10/31 10:34:49;;;;;;;1.80;1.67;;;19.00;99.90;;;;;;5051725;28;21176;-79
2021/10/31 10:37:17;;;;;;;1.80;1.30;;;19.00;99.90;;;;;;5051130;28;20646;-79
2021/10/31 10:39:46;;;;;;;1.63;1.40;;;19.00;99.90;;;;;;5051693;28;20583;-79
2021/10/31 10:42:41;;;;;;;1.80;1.40;;;19.00;99.90;;;;;;5051661;28;20579;-79
2021/10/31 10:45:14;;;;;;;3.13;2.70;;;19.00;99.90;;;;;;5051100;28;20598;-79
2021/10/31 10:47:53;;;;;;;3.50;2.70;;;19.10;99.90;;;;;;5052651;28;20698;-79
2021/10/31 10:50:23;;;;;;;3.00;2.10;;;19.10;99.90;;;;;;5051878;28;20578;-79
2021/10/31 10:52:50;;;;;;;2.33;1.60;;;19.10;99.90;;;;;;5051175;28;20581;-79
2021/10/31 10:55:21;;;;;;;1.90;1.50;;;19.20;99.90;;;;;;5052576;28;20559;-79
2021/10/31 10:57:54;;;;;;;3.30;1.20;;;19.30;99.90;;;;;;5057251;28;20726;-79
2021/10/31 11:00:40;;;;;;;2.53;1.43;;;19.40;99.90;;;;;;5053061;28;21149;-79
2021/10/31 11:03:07;;;;;;;1.90;1.43;;;19.30;99.90;;;;;;5052466;28;20958;-79
2021/10/31 11:05:36;;;;;;;2.77;1.90;;;19.30;99.90;;;;;;5050766;28;20579;-79
2021/10/31 11:08:08;;;;;;;2.33;1.57;;;19.30;99.90;;;;;;5034547;28;21112;-79
2021/10/31 11:10:34;;;;;;;3.07;1.70;;;19.30;99.90;;;;;;5063482;28;20605;-78
2021/10/31 11:13:04;;;;;;;2.80;2.00;;;19.30;99.90;;;;;;5070548;28;20578;-79
2021/10/31 11:15:32;;;;;;;3.10;1.80;;;19.30;99.90;;;;;;5071770;28;20176;-79
2021/10/31 11:18:01;;;;;;;2.00;1.40;;;19.20;99.90;;;;;;5070692;28;20656;-79
2021/10/31 11:20:29;;;;;;;1.60;1.10;;;19.20;99.90;;;;;;5071860;28;20632;-79
2021/10/31 11:23:03;;;;;;;3.10;1.50;;;19.20;99.90;;;;;;5053957;28;21153;-80
2021/10/31 11:25:31;;;;;;;2.90;1.37;;;19.20;99.90;;;;;;5071744;28;20930;-80
2021/10/31 11:27:59;;;;;;;1.53;1.20;;;19.20;99.90;;;;;;5070726;28;20667;-79
2021/10/31 11:30:27;;;;;;;2.67;2.37;;;19.20;99.90;;;;;;5053779;28;20590;-80
2021/10/31 11:32:55;;;;;;;3.03;2.23;;;19.20;99.90;;;;;;5072618;28;20567;-81
2021/10/31 11:35:22;;;;;;;2.90;1.80;;;19.20;99.90;;;;;;5075757;28;20620;-79
2021/10/31 11:37:59;;;;;;;2.63;1.70;;;19.20;99.90;;;;;;5070186;28;20656;-79
2021/10/31 11:40:36;;;;;;;2.87;1.70;;;19.20;99.90;;;;;;5071752;28;21114;-79
2021/10/31 11:43:05;;;;;;;2.00;1.40;;;19.20;99.90;;;;;;5071854;28;20610;-79
2021/10/31 11:45:35;;;;;;;4.23;1.33;;;19.30;99.90;;;;;;5071327;28;20928;-79
2021/10/31 11:48:16;;;;;;;1.90;1.53;;;19.20;99.90;;;;;;5072093;28;20613;-79
2021/10/31 11:51:02;;;;;;;2.43;1.60;;;19.30;99.90;;;;;;5070244;28;20583;-80
2021/10/31 11:53:41;;;;;;;1.70;1.30;;;19.40;99.90;;;;;;5057757;28;20605;-80
2021/10/31 11:56:25;;;;;;;2.40;1.30;;;19.30;99.90;;;;;;5069681;28;20574;-79
2021/10/31 11:58:53;;;;;;;2.77;1.53;;;19.40;99.90;;;;;;5071832;28;20585;-79
2021/10/31 12:01:34;;;;;;;3.23;1.40;;;19.40;99.90;;;;;;5069957;28;20570;-80
2021/10/31 12:04:03;;;;;;;2.00;1.80;;;19.40;99.90;;;;;;5036933;28;20613;-80
2021/10/31 12:06:29;;;;;;;1.97;1.77;;;19.40;99.90;;;;;;5071188;28;20634;-80
2021/10/31 12:08:57;;;;;;;4.47;1.80;;;19.40;99.90;;;;;;5071650;28;20589;-80
2021/10/31 12:11:29;;;;;;;2.40;1.33;;;19.50;99.90;;;;;;5076275;28;20570;-79
2021/10/31 12:13:55;;;;;;;3.93;1.97;;;19.40;99.90;;;;;;5070915;28;20650;-79
2021/10/31 12:16:21;;;;;;;2.40;1.73;;;19.40;99.90;;;;;;5071205;28;20667;-79
2021/10/31 12:18:53;;;;;;;1.80;1.57;;;19.30;99.90;;;;;;5070243;28;20583;-80
2021/10/31 12:21:30;;;;;;;2.03;1.30;;;19.30;99.90;;;;;;5071907;28;20173;-80
2021/10/31 12:24:17;;;;;;;1.90;1.23;;;19.30;99.90;;;;;;5070274;28;21224;-80
2021/10/31 12:26:48;;;;;;;2.30;1.70;;;19.20;99.90;;;;;;5071034;28;21050;-80
2021/10/31 12:29:18;;;;;;;4.47;1.77;;;19.20;99.90;;;;;;5071506;28;20563;-79
2021/10/31 12:31:55;;;;;;;1.90;1.20;;;19.20;99.90;;;;;;5071470;28;20576;-80
2021/10/31 12:34:25;;;;;;;1.40;1.00;;;19.20;99.90;;;;;;5070195;28;20606;-80
2021/10/31 12:36:54;;;;;;;3.53;1.20;;;19.30;99.90;;;;;;5070890;28;20626;-80
2021/10/31 12:39:27;;;;;;;1.77;1.37;;;19.30;99.90;;;;;;5071369;28;20567;-80
2021/10/31 12:42:19;;;;;;;1.60;0.97;;;19.30;99.90;;;;;;5071414;28;20571;-81
2021/10/31 12:45:19;;;;;;;2.13;1.10;;;19.40;99.90;;;;;;5070134;28;20571;-82
2021/10/31 12:47:56;;;;;;;2.80;0.90;;;19.50;99.90;;;;;;5075351;28;20594;-80
2021/10/31 12:50:29;;;;;;;2.70;1.40;;;19.50;99.90;;;;;;5071725;28;20594;-80
2021/10/31 12:53:15;;;;;;;2.63;2.23;;;19.60;99.90;;;;;;5071243;28;20574;-80
2021/10/31 12:55:45;;;;;;;1.87;1.20;;;19.50;99.90;;;;;;5069607;28;20590;-80
2021/10/31 12:58:14;;;;;;;2.17;1.10;;;19.50;99.90;;;;;;5094236;22;20680;-74
2021/10/31 13:00:43;;;;;;;1.57;1.00;;;19.50;99.90;;;;;;5071086;28;20644;-75